createdAt,value
2022-11-29T00:04:53.770Z,8.48
2022-11-29T00:09:56.201Z,8.43
2022-11-29T00:14:58.589Z,8.57
2022-11-29T00:20:00.997Z,8.63
2022-11-29T00:25:04.297Z,8.64
2022-11-29T00:30:07.930Z,8.62
2022-11-29T00:35:10.550Z,8.58
2022-11-29T00:40:13.165Z,8.57
2022-11-29T00:45:15.871Z,8.55
2022-11-29T00:50:18.375Z,8.52
2022-11-29T00:55:20.777Z,8.56
2022-11-29T01:00:23.239Z,8.43
2022-11-29T01:05:25.666Z,8.43
2022-11-29T01:10:28.496Z,8.44
2022-11-29T01:15:31.343Z,8.40
2022-11-29T01:20:33.808Z,8.66
2022-11-29T01:25:36.436Z,8.58
2022-11-29T01:30:39.073Z,8.62
2022-11-29T01:35:46.624Z,8.67
2022-11-29T01:41:11.049Z,8.85
2022-11-29T01:46:13.481Z,8.88
2022-11-29T01:51:16.570Z,8.79
2022-11-29T01:56:19.180Z,8.68
2022-11-29T02:01:21.871Z,8.61
2022-11-29T02:06:24.862Z,8.49
2022-11-29T02:11:48.903Z,8.38
2022-11-29T02:17:28.610Z,8.37
2022-11-29T02:22:57.798Z,8.48
2022-11-29T02:28:21.596Z,8.36
2022-11-29T02:33:44.854Z,8.34
2022-11-29T02:38:59.227Z,8.42
2022-11-29T02:44:26.241Z,8.56
2022-11-29T02:49:45.755Z,8.49
2022-11-29T02:54:52.301Z,8.42
2022-11-29T03:00:16.189Z,8.34
2022-11-29T03:05:44.854Z,8.41
2022-11-29T03:11:24.308Z,8.59
2022-11-29T03:16:44.617Z,8.63
2022-11-29T03:22:12.918Z,8.53
2022-11-29T03:27:25.229Z,8.42
2022-11-29T03:32:39.672Z,8.35
2022-11-29T03:38:03.924Z,8.34
2022-11-29T03:43:20.277Z,8.33
2022-11-29T03:48:28.414Z,8.31
2022-11-29T03:53:48.946Z,8.29
2022-11-29T03:59:10.971Z,8.22
2022-11-29T04:04:35.266Z,8.20
2022-11-29T04:09:57.339Z,8.21
2022-11-29T04:15:37.320Z,8.21
2022-11-29T04:20:47.867Z,8.23
2022-11-29T04:26:21.709Z,8.20
2022-11-29T04:31:33.291Z,8.32
2022-11-29T04:36:50.824Z,8.37
2022-11-29T04:42:21.062Z,8.48
2022-11-29T04:47:47.782Z,8.49
2022-11-29T04:53:08.836Z,8.55
2022-11-29T04:58:17.042Z,8.52
2022-11-29T05:03:41.860Z,8.57
2022-11-29T05:08:50.958Z,8.58
2022-11-29T05:14:31.453Z,8.62
2022-11-29T05:19:58.770Z,8.53
2022-11-29T05:25:22.526Z,8.41
2022-11-29T05:30:32.732Z,8.22
2022-11-29T05:35:44.369Z,8.29
2022-11-29T05:40:58.828Z,8.47
2022-11-29T05:46:16.549Z,8.34
2022-11-29T05:51:40.539Z,8.24
2022-11-29T05:57:14.920Z,8.17
2022-11-29T06:02:30.903Z,8.17
2022-11-29T06:07:39.319Z,8.52
2022-11-29T06:12:54.978Z,8.79
2022-11-29T06:18:19.171Z,9.10
2022-11-29T06:23:29.108Z,9.24
2022-11-29T06:28:50.813Z,9.24
2022-11-29T06:34:11.831Z,9.28
2022-11-29T06:39:14.485Z,9.26
2022-11-29T06:44:17.197Z,9.45
2022-11-29T06:50:10.122Z,9.49
2022-11-29T06:55:49.779Z,9.11
2022-11-29T07:01:00.808Z,8.84
2022-11-29T07:06:21.121Z,8.87
2022-11-29T07:11:23.807Z,8.72
2022-11-29T07:16:33.943Z,8.92
2022-11-29T07:21:44.235Z,9.20
2022-11-29T07:26:59.592Z,9.23
2022-11-29T07:32:23.707Z,9.11
2022-11-29T07:37:39.525Z,9.10
2022-11-29T07:43:01.386Z,9.42
2022-11-29T07:48:04.731Z,9.51
2022-11-29T07:53:07.487Z,9.47
2022-11-29T07:58:13.815Z,9.79
2022-11-29T08:03:16.283Z,9.82
2022-11-29T08:08:18.882Z,9.90
2022-11-29T08:13:21.910Z,10.02
2022-11-29T08:18:24.483Z,10.01
2022-11-29T08:23:26.844Z,9.94
2022-11-29T08:28:30.055Z,9.77
2022-11-29T08:33:34.553Z,9.76
2022-11-29T08:38:37.261Z,9.96
2022-11-29T08:43:40.322Z,10.01
2022-11-29T08:48:42.808Z,10.17
2022-11-29T08:53:46.654Z,10.23
2022-11-29T08:58:49.112Z,10.36
2022-11-29T09:04:02.529Z,10.31
2022-11-29T09:09:05.605Z,10.45
2022-11-29T09:14:11.738Z,10.57
2022-11-29T09:19:15.095Z,10.28
2022-11-29T09:24:18.727Z,10.41
2022-11-29T09:29:21.292Z,10.46
2022-11-29T09:34:23.808Z,10.38
2022-11-29T09:39:26.468Z,10.43
2022-11-29T09:44:54.068Z,10.31
2022-11-29T09:50:14.074Z,9.83
2022-11-29T09:55:31.547Z,9.79
2022-11-29T10:00:38.830Z,9.79
2022-11-29T10:05:50.099Z,9.91
2022-11-29T10:11:05.735Z,10.09
2022-11-29T10:16:24.893Z,10.23
2022-11-29T10:21:34.391Z,10.39
2022-11-29T10:26:37.704Z,10.49
2022-11-29T10:31:44.153Z,10.44
2022-11-29T10:36:50.188Z,10.46
2022-11-29T10:42:02.574Z,10.29
2022-11-29T10:47:10.493Z,10.63
2022-11-29T10:52:21.125Z,10.67
2022-11-29T10:57:24.062Z,10.64
2022-11-29T11:02:27.915Z,10.74
2022-11-29T11:07:38.365Z,10.75
2022-11-29T11:12:41.010Z,10.78
2022-11-29T11:18:00.523Z,10.79
2022-11-29T11:23:05.909Z,10.80
2022-11-29T11:28:15.761Z,10.78
2022-11-29T11:33:31.562Z,10.82
2022-11-29T11:38:55.686Z,10.79
2022-11-29T11:44:00.503Z,10.78
2022-11-29T11:49:03.084Z,10.82
2022-11-29T11:54:06.335Z,10.81
2022-11-29T11:59:20.097Z,10.96
2022-11-29T12:04:35.693Z,10.96
2022-11-29T12:09:56.402Z,10.97
2022-11-29T12:15:16.418Z,10.86
2022-11-29T12:20:24.926Z,10.98
2022-11-29T12:25:33.336Z,11.00
2022-11-29T12:30:37.410Z,10.97
2022-11-29T12:35:52.676Z,10.90
2022-11-29T12:41:06.440Z,10.84
2022-11-29T12:46:15.284Z,10.87
2022-11-29T12:51:38.250Z,10.80
2022-11-29T12:56:52.309Z,11.02
2022-11-29T13:01:57.875Z,10.82
2022-11-29T13:07:03.111Z,10.87
2022-11-29T13:12:20.302Z,10.93
2022-11-29T13:17:54.443Z,10.97
2022-11-29T13:23:02.763Z,10.86
2022-11-29T13:28:28.564Z,10.58
2022-11-29T13:33:51.712Z,10.61
2022-11-29T13:39:31.934Z,10.75
2022-11-29T13:45:01.219Z,10.83
2022-11-29T13:50:27.649Z,10.86
2022-11-29T13:55:31.597Z,10.86
2022-11-29T14:00:42.680Z,11.01
2022-11-29T14:05:47.429Z,10.85
2022-11-29T14:10:51.770Z,10.75
2022-11-29T14:16:01.539Z,10.63
2022-11-29T14:21:05.078Z,10.62
2022-11-29T14:26:07.769Z,10.62
2022-11-29T14:31:10.900Z,10.59
2022-11-29T14:36:18.883Z,10.60
2022-11-29T14:41:27.027Z,10.52
2022-11-29T14:46:32.538Z,10.44
2022-11-29T14:51:35.535Z,10.49
2022-11-29T14:56:43.176Z,10.51
2022-11-29T15:01:46.561Z,10.48
2022-11-29T15:06:53.106Z,10.40
2022-11-29T15:12:02.672Z,10.41
2022-11-29T15:17:16.424Z,10.38
2022-11-29T15:22:21.592Z,10.35
2022-11-29T15:27:24.755Z,10.25
2022-11-29T15:32:31.119Z,10.27
2022-11-29T15:37:39.721Z,10.33
2022-11-29T15:42:47.305Z,10.31
2022-11-29T15:47:50.051Z,10.22
2022-11-29T15:52:58.401Z,10.32
2022-11-29T15:58:08.540Z,10.38
2022-11-29T16:03:33.337Z,10.37
2022-11-29T16:08:41.692Z,10.42
2022-11-29T16:14:02.587Z,10.28
2022-11-29T16:19:33.907Z,10.22
2022-11-29T16:24:48.343Z,10.29
2022-11-29T16:29:55.101Z,10.30
2022-11-29T16:35:14.192Z,10.32
2022-11-29T16:40:24.042Z,10.23
2022-11-29T16:45:42.396Z,10.25
2022-11-29T16:50:46.141Z,10.19
2022-11-29T16:55:49.559Z,10.21
2022-11-29T17:00:52.076Z,10.24
2022-11-29T17:05:55.114Z,10.07
2022-11-29T17:10:57.507Z,10.13
2022-11-29T17:15:59.906Z,10.25
2022-11-29T17:21:02.335Z,10.38
2022-11-29T17:26:04.902Z,10.39
2022-11-29T17:31:15.022Z,10.34
2022-11-29T17:36:20.076Z,10.31
2022-11-29T17:41:24.517Z,10.19
2022-11-29T17:46:29.923Z,10.28
2022-11-29T17:56:55.989Z,10.30
2022-11-29T18:01:58.507Z,10.49
2022-11-29T18:07:01.642Z,10.35
2022-11-29T18:12:04.216Z,10.31
2022-11-29T18:17:07.147Z,10.28
2022-11-29T18:22:09.986Z,10.27
2022-11-29T18:27:12.456Z,10.27
2022-11-29T18:32:14.891Z,10.25
2022-11-29T18:37:33.747Z,10.14
2022-11-29T18:42:40.141Z,10.22
2022-11-29T18:47:42.573Z,10.16
2022-11-29T18:52:44.941Z,10.03
2022-11-29T18:57:50.488Z,10.11
2022-11-29T19:02:53.340Z,9.99
2022-11-29T19:07:55.992Z,9.93
2022-11-29T19:12:58.409Z,9.90
2022-11-29T19:18:00.790Z,9.81
2022-11-29T19:23:03.312Z,9.91
2022-11-29T19:28:12.550Z,9.96
2022-11-29T19:33:16.422Z,10.00
2022-11-29T19:38:18.923Z,9.98
2022-11-29T19:43:21.381Z,9.97
2022-11-29T19:48:23.864Z,9.83
2022-11-29T19:53:26.391Z,9.52
2022-11-29T19:58:28.855Z,9.61
2022-11-29T20:03:31.348Z,9.63
2022-11-29T20:08:34.027Z,9.49
2022-11-29T20:13:37.697Z,9.41
2022-11-29T20:18:48.750Z,9.60
2022-11-29T20:24:13.028Z,9.83
2022-11-29T20:29:16.278Z,9.89
2022-11-29T20:34:19.459Z,9.84
2022-11-29T20:39:50.099Z,9.43
2022-11-29T20:44:59.764Z,9.68
2022-11-29T20:50:02.359Z,9.81
2022-11-29T20:55:05.573Z,9.88
2022-11-29T21:00:11.687Z,9.79
2022-11-29T21:05:16.193Z,9.74
2022-11-29T21:10:19.382Z,9.66
2022-11-29T21:15:23.121Z,9.54
2022-11-29T21:20:27.146Z,9.36
2022-11-29T21:25:56.435Z,9.26
2022-11-29T21:30:59.212Z,9.18
2022-11-29T21:36:03.140Z,9.01
2022-11-29T21:41:05.852Z,9.18
2022-11-29T21:46:09.167Z,9.25
2022-11-29T21:51:12.185Z,9.20
2022-11-29T21:56:14.692Z,9.30
2022-11-29T22:01:19.530Z,9.39
2022-11-29T22:06:24.320Z,9.58
2022-11-29T22:11:35.439Z,9.66
2022-11-29T22:16:38.115Z,9.76
2022-11-29T22:21:45.368Z,9.83
2022-11-29T22:26:49.298Z,9.85
2022-11-29T22:31:53.769Z,9.76
2022-11-29T22:36:56.614Z,9.80
2022-11-29T22:41:59.010Z,9.86
2022-11-29T22:47:01.684Z,9.87
2022-11-29T22:52:04.293Z,9.91
2022-11-29T22:57:06.659Z,10.02
2022-11-29T23:02:09.428Z,9.98
2022-11-29T23:07:11.963Z,9.91
2022-11-29T23:12:14.339Z,9.84
2022-11-29T23:17:16.885Z,9.95
2022-11-29T23:22:19.301Z,9.99
2022-11-29T23:27:21.967Z,9.84
2022-11-29T23:32:24.398Z,9.88
2022-11-29T23:37:26.839Z,10.25
2022-11-29T23:42:29.235Z,10.29
2022-11-29T23:47:31.662Z,10.08
2022-11-29T23:52:34.100Z,9.97
2022-11-29T23:57:36.475Z,9.86
